Time;durP1;ratioP1;P1;durP2;ratioP2;P2;SDS_P1;SDS_P2;PMS_P1;PMS_P2;Temp;Humidity;BMP_temperature;BMP_pressure;BME280_temperature;BME280_humidity;BME280_pressure;Samples;Min_cycle;Max_cycle;Signal;HPM_P1;HPM_P2
2022/10/25 00:02:04;;;;;;;7.00;3.50;;;;;;;11.82;72.98;99799.38;24501;1323;3030035;-63
2022/10/25 00:04:34;;;;;;;10.80;4.70;;;;;;;12.33;71.74;99794.90;24499;1330;3054614;-68
2022/10/25 00:07:04;;;;;;;10.30;4.90;;;;;;;12.83;69.71;99790.48;24501;1340;3027419;-67
2022/10/25 00:09:33;;;;;;;12.00;5.30;;;;;;;12.86;69.43;99791.89;24492;1333;3028404;-65
2022/10/25 00:12:04;;;;;;;11.10;5.30;;;;;;;12.75;69.51;99790.14;24507;1339;3027102;-67
2022/10/25 00:14:35;;;;;;;12.30;6.20;;;;;;;12.45;70.30;99784.30;24525;1340;3029943;-64
2022/10/25 00:17:04;;;;;;;10.30;5.50;;;;;;;12.28;71.39;99786.60;24518;1323;3027145;-64
2022/10/25 00:19:33;;;;;;;11.10;5.40;;;;;;;12.12;72.06;99783.49;24568;1330;3051624;-67
2022/10/25 00:22:02;;;;;;;9.70;5.50;;;;;;;11.98;72.61;99784.16;24512;1324;3028888;-64
2022/10/25 00:24:32;;;;;;;11.50;5.80;;;;;;;11.85;73.02;99782.33;24513;1331;3051114;-68
2022/10/25 00:27:01;;;;;;;14.10;6.40;;;;;;;11.74;73.46;99774.23;24572;1323;3028986;-68
2022/10/25 00:29:31;;;;;;;12.60;6.20;;;;;;;11.67;74.01;99776.03;24482;1331;3053079;-66
2022/10/25 00:31:59;;;;;;;8.50;4.30;;;;;;;11.63;74.40;99771.56;24463;1331;3029089;-61
2022/10/25 00:34:29;;;;;;;7.70;4.50;;;;;;;12.21;72.89;99768.91;24545;1339;3027733;-64
2022/10/25 00:36:59;;;;;;;8.50;4.60;;;;;;;12.68;70.37;99762.77;24518;1331;3028888;-60
2022/10/25 00:39:28;;;;;;;10.50;5.90;;;;;;;12.70;69.96;99763.92;24503;1331;3028156;-66
2022/10/25 00:41:57;;;;;;;10.40;5.90;;;;;;;12.42;71.04;99760.26;24510;1331;3051975;-66
2022/10/25 00:44:39;;;;;;;11.40;5.60;;;;;;;12.21;71.93;99757.68;24499;1326;3028231;-67
2022/10/25 00:47:20;;;;;;;9.50;5.10;;;;;;;11.84;73.53;99761.88;24515;1340;3051590;-68
2022/10/25 00:49:53;;;;;;;9.10;5.70;;;;;;;11.73;73.69;99757.09;24561;1327;3053923;-63
2022/10/25 00:52:22;;;;;;;8.10;4.90;;;;;;;11.65;73.99;99757.07;24575;1324;3050233;-66
2022/10/25 00:54:51;;;;;;;9.70;5.10;;;;;;;11.56;74.22;99757.59;24521;1327;3028889;-65
2022/10/25 00:57:28;;;;;;;9.60;3.70;;;;;;;11.41;75.41;99753.20;24493;1330;3051415;-64
2022/10/25 00:59:57;;;;;;;10.40;4.50;;;;;;;11.92;73.88;99751.38;23891;1331;4244502;-62
2022/10/25 01:02:28;;;;;;;6.80;4.40;;;;;;;12.40;71.94;99749.50;24553;1340;3026513;-67
2022/10/25 01:04:57;;;;;;;9.00;5.20;;;;;;;12.42;71.49;99744.23;24551;1324;3029145;-66
2022/10/25 01:07:26;;;;;;;10.90;5.40;;;;;;;12.30;72.00;99738.19;24500;1334;3050224;-65
2022/10/25 01:09:56;;;;;;;12.20;5.40;;;;;;;12.13;72.42;99735.38;24583;1324;3030488;-62
2022/10/25 01:12:25;;;;;;;8.80;5.30;;;;;;;11.98;73.36;99735.40;24537;1331;3029245;-62
2022/10/25 01:14:54;;;;;;;9.00;5.10;;;;;;;11.81;74.07;99730.99;24585;1325;3029522;-66
2022/10/25 01:17:55;;;;;;;10.00;5.20;;;;;;;11.67;74.73;99729.02;24482;1331;3028369;-65
2022/10/25 01:20:27;;;;;;;9.30;4.60;;;;;;;11.49;75.47;99724.83;24524;1330;3054828;-67
2022/10/25 01:23:02;;;;;;;5.60;3.20;;;;;;;11.46;75.81;99725.20;24530;1324;3029870;-63
2022/10/25 01:25:44;;;;;;;6.20;3.40;;;;;;;12.00;74.64;99723.00;24552;1330;3053493;-60
2022/10/25 01:28:50;;;;;;;5.10;3.10;;;;;;;12.61;72.19;99720.02;24611;1330;3049051;-65
2022/10/25 01:31:38;;;;;;;6.10;3.60;;;;;;;12.58;71.75;99723.02;24514;1325;3068542;-63
2022/10/25 01:34:20;;;;;;;5.90;3.30;;;;;;;12.46;71.96;99719.88;24567;1325;3049792;-65
2022/10/25 01:37:01;;;;;;;5.50;3.00;;;;;;;12.35;71.89;99723.06;24513;1330;3057959;-63
2022/10/25 01:39:53;;;;;;;7.60;4.40;;;;;;;12.25;72.20;99719.85;24535;1331;3053631;-66
2022/10/25 01:42:37;;;;;;;5.00;3.30;;;;;;;12.07;73.28;99717.49;24532;1337;3053856;-63
2022/10/25 01:45:08;;;;;;;;;;;;;;;11.96;73.72;99721.63;24532;1323;3051528;-67
2022/10/25 01:47:47;;;;;;;6.10;3.20;;;;;;;11.84;73.76;99723.61;24600;1340;3027693;-69
2022/10/25 01:50:35;;;;;;;3.40;1.50;;;;;;;11.75;74.68;99723.98;24550;1330;3049345;-62
2022/10/25 01:53:04;;;;;;;5.20;3.10;;;;;;;12.39;73.53;99728.08;24469;1324;3070555;-63
2022/10/25 01:55:57;;;;;;;4.90;3.00;;;;;;;12.89;71.81;99724.20;24591;1331;3028631;-69
2022/10/25 01:58:53;;;;;;;3.70;2.50;;;;;;;12.90;71.39;99728.66;24523;1333;3058176;-66
2022/10/25 02:01:37;;;;;;;5.60;2.80;;;;;;;12.72;71.53;99727.89;24539;1323;3053256;-62
2022/10/25 02:04:30;;;;;;;5.90;3.00;;;;;;;12.39;72.54;99732.29;24537;1331;3053181;-64
2022/10/25 02:07:24;;;;;;;6.40;3.40;;;;;;;12.21;73.28;99729.61;24513;1323;3051472;-62
2022/10/25 02:10:02;;;;;;;6.10;3.30;;;;;;;12.00;74.30;99733.21;24515;1331;3054759;-63
2022/10/25 02:12:56;;;;;;;5.50;3.20;;;;;;;11.86;75.21;99733.52;24556;1339;3051522;-62
2022/10/25 02:15:47;;;;;;;4.70;2.10;;;;;;;11.71;76.22;99728.81;24538;1329;3070691;-65
2022/10/25 02:18:19;;;;;;;4.40;2.30;;;;;;;12.39;74.99;99723.68;24533;1331;3051237;-64
2022/10/25 02:20:50;;;;;;;4.50;2.90;;;;;;;12.77;73.17;99726.33;24531;1340;3055710;-63
2022/10/25 02:23:20;;;;;;;5.70;3.40;;;;;;;12.74;73.30;99724.64;24508;1331;3025181;-64
2022/10/25 02:25:49;;;;;;;8.20;3.70;;;;;;;12.48;74.02;99730.30;24563;1325;3025942;-65
2022/10/25 02:28:21;;;;;;;5.80;3.80;;;;;;;12.12;75.31;99732.04;24516;1333;3055730;-63
2022/10/25 02:30:50;;;;;;;8.10;4.90;;;;;;;11.81;76.82;99732.05;24525;1333;3027211;-64
2022/10/25 02:33:19;;;;;;;9.10;4.80;;;;;;;11.56;77.87;99731.80;24534;1315;3028289;-65
2022/10/25 02:36:15;;;;;;;7.10;4.50;;;;;;;11.38;78.56;99731.80;24495;1333;3058215;-68
2022/10/25 02:38:44;;;;;;;4.40;2.70;;;;;;;11.33;79.25;99733.37;24541;1337;3053774;-67
2022/10/25 02:41:14;;;;;;;6.10;3.40;;;;;;;11.78;78.52;99729.23;24550;1326;3029701;-64
2022/10/25 02:43:43;;;;;;;6.20;3.90;;;;;;;12.03;77.23;99726.33;24554;1324;3057737;-65
2022/10/25 02:46:14;;;;;;;9.70;5.20;;;;;;;11.94;77.74;99732.45;24555;1324;3029753;-65
2022/10/25 02:48:45;;;;;;;9.00;5.20;;;;;;;11.76;78.73;99737.76;24533;1331;3051504;-66
2022/10/25 02:51:14;;;;;;;9.20;5.10;;;;;;;11.55;79.64;99728.31;24519;1331;3029146;-65
2022/10/25 02:53:43;;;;;;;9.00;5.30;;;;;;;11.31;80.99;99730.14;24487;1331;3028554;-67
2022/10/25 02:56:14;;;;;;;9.60;5.60;;;;;;;11.20;81.83;99724.80;24536;1324;3025766;-68
2022/10/25 02:58:44;;;;;;;6.30;3.50;;;;;;;11.08;82.30;99724.28;24510;1332;3058136;-68
2022/10/25 03:01:13;;;;;;;10.90;4.60;;;;;;;11.60;81.19;99717.52;24492;1333;3028908;-63
2022/10/25 03:03:43;;;;;;;8.60;5.00;;;;;;;12.04;79.33;99710.59;24514;1334;3025112;-67
2022/10/25 03:06:13;;;;;;;8.70;5.60;;;;;;;11.91;78.95;99710.19;24487;1332;3027122;-62
2022/10/25 03:08:42;;;;;;;10.10;6.70;;;;;;;11.68;80.50;99712.48;24514;1329;3029416;-65
2022/10/25 03:11:14;;;;;;;9.60;5.80;;;;;;;11.33;82.42;99705.61;24550;1327;3052746;-65
2022/10/25 03:13:47;;;;;;;12.40;6.50;;;;;;;11.39;81.69;99700.03;24541;1330;3052223;-64
2022/10/25 03:16:18;;;;;;;7.40;4.10;;;;;;;11.12;83.42;99706.88;24526;1340;3028008;-63
2022/10/25 03:18:56;;;;;;;10.00;5.90;;;;;;;11.66;82.07;99694.18;24520;1324;3050109;-64
2022/10/25 03:21:25;;;;;;;10.20;6.00;;;;;;;12.01;80.58;99690.27;24549;1333;3026124;-64
2022/10/25 03:23:56;;;;;;;12.90;7.20;;;;;;;12.07;79.78;99692.89;24535;1340;3028128;-64
2022/10/25 03:26:26;;;;;;;10.90;6.90;;;;;;;11.75;80.66;99691.85;24548;1333;3027388;-65
2022/10/25 03:28:58;;;;;;;10.60;7.10;;;;;;;11.38;82.64;99701.63;24542;1333;3029234;-66
2022/10/25 03:31:28;;;;;;;12.40;7.70;;;;;;;11.28;82.98;99704.70;24493;1340;3026613;-61
2022/10/25 03:33:57;;;;;;;8.60;5.20;;;;;;;11.02;84.88;99708.68;24528;1333;3028664;-67
2022/10/25 03:36:26;;;;;;;11.80;6.70;;;;;;;11.55;83.63;99704.12;24545;1324;3027148;-65
2022/10/25 03:38:55;;;;;;;19.50;9.60;;;;;;;11.80;82.12;99700.88;24537;1333;3054185;-62
2022/10/25 03:41:25;;;;;;;28.90;12.90;;;;;;;11.92;81.32;99705.55;24504;1333;3025577;-66
2022/10/25 03:43:54;;;;;;;35.20;15.40;;;;;;;11.85;80.91;99706.67;24511;1334;3028136;-62
2022/10/25 03:46:23;;;;;;;32.00;15.60;;;;;;;11.47;82.30;99709.13;24523;1322;3029290;-64
2022/10/25 03:48:52;;;;;;;35.30;14.50;;;;;;;11.43;82.12;99708.17;24488;1327;3051168;-66
2022/10/25 03:51:21;;;;;;;21.70;11.20;;;;;;;11.13;84.04;99720.30;24498;1332;3026295;-64
2022/10/25 03:53:50;;;;;;;17.80;9.00;;;;;;;11.70;82.52;99710.42;24532;1326;3052717;-65
2022/10/25 03:56:19;;;;;;;18.70;8.60;;;;;;;12.26;79.94;99714.46;24552;1333;3026850;-62
2022/10/25 03:58:48;;;;;;;15.60;9.30;;;;;;;12.24;79.43;99712.91;24506;1317;3054027;-65
2022/10/25 04:01:17;;;;;;;13.90;8.30;;;;;;;11.96;80.29;99710.73;24542;1332;3026020;-64
2022/10/25 04:03:46;;;;;;;15.70;8.70;;;;;;;11.64;81.23;99713.59;24510;1331;3056143;-66
2022/10/25 04:06:15;;;;;;;16.90;9.40;;;;;;;11.31;82.69;99715.36;24577;1332;3029046;-67
2022/10/25 04:08:45;;;;;;;11.10;5.80;;;;;;;11.16;83.73;99714.38;24579;1332;3049603;-69
2022/10/25 04:11:18;;;;;;;14.20;6.90;;;;;;;11.71;82.98;99708.76;24516;1333;3026283;-67
2022/10/25 04:13:49;;;;;;;13.00;6.70;;;;;;;12.01;80.87;99703.98;24566;1330;3028747;-60
2022/10/25 04:16:18;;;;;;;18.70;10.90;;;;;;;12.13;80.31;99700.56;24553;1323;3027545;-68
2022/10/25 04:18:50;;;;;;;21.70;13.10;;;;;;;11.85;80.48;99701.59;24532;1336;3057916;-64
2022/10/25 04:21:24;;;;;;;23.40;14.50;;;;;;;11.59;81.84;99699.16;24514;1331;3052826;-63
2022/10/25 04:23:53;;;;;;;24.10;14.50;;;;;;;11.37;82.81;99708.35;24540;1333;3029780;-66
2022/10/25 04:26:22;;;;;;;17.90;10.30;;;;;;;11.15;83.84;99708.95;24459;1317;3027653;-65
2022/10/25 04:28:53;;;;;;;25.00;12.90;;;;;;;11.76;82.91;99699.85;24524;1340;3053574;-63
2022/10/25 04:31:22;;;;;;;22.80;12.20;;;;;;;12.14;80.49;99697.87;24537;1339;3026806;-66
2022/10/25 04:33:53;;;;;;;21.90;13.60;;;;;;;11.90;81.11;99705.36;24570;1327;3025804;-68
2022/10/25 04:36:22;;;;;;;25.60;13.10;;;;;;;11.76;81.45;99703.36;24498;1340;3029998;-69
2022/10/25 04:38:51;;;;;;;26.20;13.20;;;;;;;11.65;81.56;99706.34;24554;1323;3027792;-66
2022/10/25 04:41:23;;;;;;;23.90;12.70;;;;;;;11.50;82.01;99708.66;24567;1324;3051155;-63
2022/10/25 04:43:53;;;;;;;14.80;7.60;;;;;;;11.33;83.08;99721.09;24573;1329;3028665;-65
2022/10/25 04:46:22;;;;;;;19.60;9.90;;;;;;;11.76;82.35;99717.92;24528;1331;3027977;-68
2022/10/25 04:48:51;;;;;;;20.50;10.00;;;;;;;11.92;81.17;99720.85;24518;1333;3052268;-65
2022/10/25 04:51:20;;;;;;;26.80;12.10;;;;;;;12.20;80.06;99717.20;24486;1323;3028406;-62
2022/10/25 04:53:52;;;;;;;29.40;12.40;;;;;;;11.95;80.15;99721.58;24556;1331;3054219;-64
2022/10/25 04:56:21;;;;;;;27.70;12.90;;;;;;;11.85;80.50;99721.76;24498;1331;3025983;-65
2022/10/25 04:58:50;;;;;;;29.50;12.80;;;;;;;11.51;81.88;99727.70;24482;1323;3030124;-62
2022/10/25 05:01:20;;;;;;;18.00;9.00;;;;;;;11.55;81.92;99727.62;24498;1331;3052109;-64
2022/10/25 05:03:52;;;;;;;23.40;10.10;;;;;;;12.10;80.43;99728.32;24477;1334;3029426;-63
2022/10/25 05:06:25;;;;;;;30.90;14.20;;;;;;;12.26;78.80;99727.52;24533;1333;3024913;-62
2022/10/25 05:08:56;;;;;;;38.70;15.40;;;;;;;12.28;78.66;99730.71;24522;1333;3025765;-68
2022/10/25 05:11:25;;;;;;;36.00;15.80;;;;;;;12.19;78.61;99735.88;24503;1331;3029992;-64
2022/10/25 05:13:55;;;;;;;32.40;14.90;;;;;;;11.98;79.22;99739.46;24519;1332;3052274;-66
2022/10/25 05:16:25;;;;;;;28.50;14.40;;;;;;;11.85;79.98;99743.35;24505;1324;3030149;-68
2022/10/25 05:18:55;;;;;;;32.60;14.00;;;;;;;11.74;80.56;99745.66;24611;1330;3026044;-65
2022/10/25 05:21:29;;;;;;;19.60;8.00;;;;;;;11.58;81.10;99750.12;24510;1331;3028673;-67
2022/10/25 05:23:59;;;;;;;21.20;9.50;;;;;;;12.29;79.26;99746.12;24555;1334;3055686;-69
2022/10/25 05:26:29;;;;;;;21.40;10.10;;;;;;;12.69;77.57;99749.90;24514;1340;3028485;-61
2022/10/25 05:28:58;;;;;;;22.50;11.50;;;;;;;12.72;76.70;99747.39;24543;1330;3029390;-67
2022/10/25 05:31:29;;;;;;;20.90;10.90;;;;;;;12.69;76.68;99749.52;24512;1324;3027096;-68
2022/10/25 05:33:59;;;;;;;23.50;11.10;;;;;;;12.37;77.25;99747.56;24506;1331;3026018;-71
2022/10/25 05:36:28;;;;;;;22.60;10.60;;;;;;;12.32;77.79;99747.17;24544;1334;3026708;-63
2022/10/25 05:38:59;;;;;;;20.90;11.00;;;;;;;11.99;78.88;99752.73;24592;1331;3027841;-68
2022/10/25 05:41:30;;;;;;;11.20;6.80;;;;;;;11.75;80.01;99749.92;24564;1331;3051919;-67
2022/10/25 05:43:59;;;;;;;16.80;8.20;;;;;;;12.22;79.20;99751.16;24536;1339;3030180;-65
2022/10/25 05:46:29;;;;;;;16.90;9.00;;;;;;;12.68;76.94;99749.59;24538;1324;3029173;-72
2022/10/25 05:48:58;;;;;;;19.40;11.00;;;;;;;12.80;75.86;99751.83;24506;1331;3028521;-67
2022/10/25 05:51:29;;;;;;;26.10;11.70;;;;;;;12.49;76.92;99750.99;24598;1336;3029682;-66
2022/10/25 05:53:59;;;;;;;22.70;11.10;;;;;;;12.36;77.38;99751.29;24586;1324;3027888;-71
2022/10/25 05:56:29;;;;;;;21.20;11.00;;;;;;;12.34;77.27;99755.99;24544;1330;3026644;-67
2022/10/25 05:59:07;;;;;;;26.20;12.00;;;;;;;12.15;77.94;99761.44;24550;1333;3026950;-69
2022/10/25 06:01:38;;;;;;;23.80;11.50;;;;;;;12.21;77.14;99754.16;24521;1334;3053925;-72
2022/10/25 06:04:08;;;;;;;14.80;8.10;;;;;;;12.20;77.56;99758.30;24558;1331;3027753;-64
2022/10/25 06:06:39;;;;;;;24.40;11.60;;;;;;;12.55;76.61;99758.38;24498;1331;3029437;-66
2022/10/25 06:09:09;;;;;;;24.70;11.30;;;;;;;13.05;74.92;99757.20;24533;1333;3028240;-70
2022/10/25 06:11:38;;;;;;;31.50;14.00;;;;;;;13.28;74.05;99759.91;24565;1323;3029521;-70
2022/10/25 06:14:09;;;;;;;34.20;18.40;;;;;;;13.00;74.45;99767.92;24529;1330;3069291;-69
2022/10/25 06:16:38;;;;;;;27.20;13.60;;;;;;;12.80;75.55;99774.13;24549;1331;3027783;-74
2022/10/25 06:19:08;;;;;;;24.80;13.70;;;;;;;12.52;76.31;99777.67;24543;1330;3030037;-69
2022/10/25 06:21:38;;;;;;;22.60;11.10;;;;;;;12.51;76.33;99778.66;24548;1330;3029300;-67
2022/10/25 06:24:07;;;;;;;18.10;10.80;;;;;;;12.38;76.60;99785.40;24533;1322;3027619;-70
2022/10/25 06:26:37;;;;;;;11.90;5.60;;;;;;;12.25;77.18;99791.66;24562;1333;3056626;-63
2022/10/25 06:29:06;;;;;;;10.70;6.30;;;;;;;12.69;76.20;99784.85;24547;1332;3026820;-68
2022/10/25 06:31:34;;;;;;;14.70;6.90;;;;;;;13.31;74.05;99785.39;24532;1326;3051137;-68
2022/10/25 06:34:04;;;;;;;12.00;6.60;;;;;;;13.30;73.47;99788.83;24535;1330;3029764;-71
2022/10/25 06:36:33;;;;;;;12.20;7.00;;;;;;;12.97;74.23;99788.65;24515;1333;3069451;-69
2022/10/25 06:39:02;;;;;;;11.70;6.00;;;;;;;12.73;75.19;99793.21;24503;1317;3027684;-69
2022/10/25 06:41:31;;;;;;;20.10;8.40;;;;;;;12.72;75.57;99788.70;24566;1332;3050170;-68
2022/10/25 06:44:01;;;;;;;17.60;7.40;;;;;;;12.62;76.04;99782.69;24537;1334;3029971;-72
2022/10/25 06:46:35;;;;;;;18.40;9.50;;;;;;;12.55;76.53;99778.54;24535;1324;3026523;-64
2022/10/25 06:49:05;;;;;;;10.00;5.40;;;;;;;12.53;77.07;99777.27;24526;1334;3027470;-70
2022/10/25 06:51:35;;;;;;;14.30;6.90;;;;;;;13.08;75.63;99776.16;24527;1334;3028319;-69
2022/10/25 06:54:06;;;;;;;14.80;7.40;;;;;;;13.47;73.75;99770.47;24505;1330;3029925;-72
2022/10/25 06:56:36;;;;;;;19.80;8.80;;;;;;;13.74;72.70;99768.77;24458;1333;3027039;-64
2022/10/25 06:59:07;;;;;;;19.50;9.60;;;;;;;13.63;73.06;99767.80;24488;1334;3028212;-67
2022/10/25 07:06:19;;;;;;;15.60;8.80;;;;;;;13.26;74.81;99769.02;30808;1331;3015323;-69
2022/10/25 07:08:52;;;;;;;17.60;8.90;;;;;;;13.14;75.28;99765.61;24433;1340;3069125;-71
2022/10/25 07:11:24;;;;;;;12.90;7.40;;;;;;;13.10;75.63;99761.84;24434;1339;3050534;-69
2022/10/25 07:13:54;;;;;;;10.70;5.10;;;;;;;13.21;75.75;99763.90;24462;1346;3027547;-70
2022/10/25 07:16:23;;;;;;;14.20;6.00;;;;;;;13.81;74.17;99756.33;24439;1339;3028179;-65
2022/10/25 07:19:00;;;;;;;10.80;6.00;;;;;;;14.32;72.07;99749.78;23851;1342;4373774;-72
2022/10/25 07:21:30;;;;;;;12.20;6.70;;;;;;;14.26;71.88;99749.16;24834;1336;3048961;-71
2022/10/25 07:23:59;;;;;;;13.20;7.40;;;;;;;14.00;72.83;99748.70;24474;1338;3029033;-69
2022/10/25 07:26:32;;;;;;;15.80;8.10;;;;;;;13.98;73.52;99749.35;24481;1334;3030091;-71
2022/10/25 07:29:03;;;;;;;19.50;7.90;;;;;;;13.93;73.72;99750.91;24435;1336;3026490;-72
2022/10/25 07:31:34;;;;;;;18.90;9.50;;;;;;;13.84;73.99;99752.64;24414;1338;3029842;-69
2022/10/25 07:34:03;;;;;;;19.50;9.70;;;;;;;13.73;74.83;99747.44;24510;1334;3027515;-68
2022/10/25 07:36:32;;;;;;;15.10;8.90;;;;;;;13.73;75.03;99744.92;24475;1327;3026669;-71
2022/10/25 07:39:02;;;;;;;12.30;6.10;;;;;;;13.64;75.43;99753.50;24545;1333;3029132;-67
2022/10/25 07:41:31;;;;;;;12.70;6.70;;;;;;;14.15;74.23;99745.67;24495;1332;3028413;-69
2022/10/25 07:44:00;;;;;;;10.40;5.40;;;;;;;14.79;71.83;99742.71;24532;1331;3053044;-68
2022/10/25 07:46:30;;;;;;;13.10;5.90;;;;;;;15.00;71.18;99737.44;24517;1331;3028385;-68
2022/10/25 07:48:59;;;;;;;11.50;5.90;;;;;;;15.02;70.78;99731.62;24488;1326;3028071;-71
2022/10/25 07:51:28;;;;;;;13.80;7.40;;;;;;;14.75;71.65;99733.14;24555;1331;3053646;-68
2022/10/25 07:53:57;;;;;;;15.90;6.60;;;;;;;14.60;72.38;99728.94;24420;1331;3025891;-69
2022/10/25 07:56:26;;;;;;;11.90;6.80;;;;;;;14.45;73.10;99730.65;24489;1330;3056847;-67
2022/10/25 07:58:57;;;;;;;12.60;7.40;;;;;;;14.44;73.20;99729.87;24516;1331;3027264;-67
2022/10/25 08:01:26;;;;;;;13.60;7.60;;;;;;;14.46;73.67;99730.98;24490;1325;3028854;-67
2022/10/25 08:03:55;;;;;;;11.50;5.60;;;;;;;14.35;74.12;99730.86;24601;1332;3058229;-68
2022/10/25 08:06:25;;;;;;;12.80;7.00;;;;;;;14.77;72.92;99730.15;24516;1342;3026387;-70
2022/10/25 08:08:54;;;;;;;12.60;5.00;;;;;;;15.08;71.66;99729.81;24534;1325;3026310;-73
2022/10/25 08:11:23;;;;;;;16.50;8.80;;;;;;;15.34;70.74;99733.49;24465;1325;3028043;-68
2022/10/25 08:13:53;;;;;;;19.60;9.50;;;;;;;14.99;71.79;99734.90;24491;1333;3053908;-70
2022/10/25 08:16:24;;;;;;;19.20;9.10;;;;;;;14.88;72.37;99734.65;25430;1335;3028230;-67
2022/10/25 08:18:53;;;;;;;17.00;9.00;;;;;;;14.52;73.88;99740.93;25439;1331;3027183;-69
2022/10/25 08:21:22;;;;;;;22.80;10.10;;;;;;;14.51;74.37;99744.91;25446;1327;3026356;-67
2022/10/25 08:23:51;;;;;;;15.50;8.50;;;;;;;14.54;74.53;99742.52;25437;1331;3052847;-69
2022/10/25 08:26:23;;;;;;;16.30;8.30;;;;;;;14.37;74.94;99741.33;25431;1332;3027728;-68
2022/10/25 08:28:53;;;;;;;9.40;4.40;;;;;;;14.31;75.69;99741.55;25434;1333;3051769;-67
2022/10/25 08:31:22;;;;;;;7.50;4.20;;;;;;;14.72;74.71;99738.58;25431;1332;3026928;-67
2022/10/25 08:33:55;;;;;;;8.50;4.80;;;;;;;15.39;72.16;99732.96;25413;1330;3057613;-65
2022/10/25 08:36:25;;;;;;;8.50;5.30;;;;;;;15.62;71.41;99731.85;25436;1331;3026081;-73
2022/10/25 08:38:54;;;;;;;14.40;6.10;;;;;;;15.66;70.91;99735.78;25434;1333;3025053;-67
2022/10/25 08:41:55;;;;;;;35.80;12.80;;;;;;;15.42;71.40;99736.05;25438;1331;3027622;-67
2022/10/25 08:44:47;;;;;;;27.90;11.30;;;;;;;15.10;72.71;99741.30;25413;1321;3054974;-73
2022/10/25 08:47:22;;;;;;;16.70;8.20;;;;;;;14.96;73.78;99738.81;25389;1325;3049510;-71
2022/10/25 08:49:57;;;;;;;14.20;7.00;;;;;;;14.97;74.17;99743.66;25391;1334;3067492;-70
2022/10/25 08:52:32;;;;;;;12.90;6.40;;;;;;;14.82;74.63;99736.34;25421;1335;3049668;-65
2022/10/25 08:55:02;;;;;;;8.00;4.50;;;;;;;14.95;74.70;99738.55;25365;1325;3057449;-65
2022/10/25 08:57:33;;;;;;;12.30;5.70;;;;;;;15.14;73.74;99729.88;25442;1331;3027149;-67
2022/10/25 09:00:31;;;;;;;20.00;8.70;;;;;;;15.82;71.56;99721.86;25450;1323;3052874;-68
2022/10/25 09:03:00;;;;;;;19.80;8.00;;;;;;;15.91;71.41;99717.82;25406;1333;3026462;-68
2022/10/25 09:06:05;;;;;;;15.50;6.40;;;;;;;15.94;71.22;99722.17;25425;1331;3027802;-70
2022/10/25 09:08:56;;;;;;;10.70;5.80;;;;;;;15.87;71.82;99723.07;25395;1326;3049972;-69
2022/10/25 09:11:45;;;;;;;8.90;5.30;;;;;;;15.84;71.39;99723.36;25432;1338;3069280;-68
2022/10/25 09:14:37;;;;;;;10.60;5.80;;;;;;;15.77;72.06;99720.85;25445;1331;3049895;-73
2022/10/25 09:17:11;;;;;;;11.30;5.80;;;;;;;15.63;72.82;99717.33;25346;1326;3056526;-65
2022/10/25 09:20:06;;;;;;;7.60;5.40;;;;;;;15.45;73.53;99719.41;25437;1333;3026130;-66
2022/10/25 09:22:45;;;;;;;8.90;5.20;;;;;;;15.31;73.77;99715.00;25437;1333;3053791;-70
2022/10/25 09:25:33;;;;;;;6.00;3.30;;;;;;;15.42;73.16;99710.81;25416;1331;3050498;-68
2022/10/25 09:28:08;;;;;;;4.90;3.10;;;;;;;15.85;72.39;99702.61;25442;1334;3052171;-71
2022/10/25 09:30:38;;;;;;;7.90;4.00;;;;;;;16.57;69.18;99710.60;25366;1334;3050137;-69
2022/10/25 09:33:12;;;;;;;7.20;4.30;;;;;;;16.67;69.19;99708.18;25404;1333;3025399;-65
2022/10/25 09:35:48;;;;;;;7.90;4.60;;;;;;;16.57;68.92;99703.37;25412;1325;3050286;-71
2022/10/25 09:38:18;;;;;;;;;;;;;;;16.40;69.43;99702.94;25400;1328;3057543;-71
2022/10/25 09:40:56;;;;;;;7.90;5.20;;;;;;;16.21;70.01;99699.38;25434;1340;3026674;-66
2022/10/25 09:43:38;;;;;;;8.70;5.60;;;;;;;15.99;71.13;99700.58;25409;1331;3054448;-70
2022/10/25 09:46:13;;;;;;;8.80;6.10;;;;;;;16.10;70.90;99692.48;25435;1328;3052327;-70
2022/10/25 09:48:59;;;;;;;9.80;6.80;;;;;;;16.07;71.47;99690.95;25386;1332;3053586;-67
2022/10/25 09:51:31;;;;;;;8.90;6.20;;;;;;;15.90;71.44;99691.27;25449;1331;3049224;-69
2022/10/25 09:54:02;;;;;;;11.80;6.70;;;;;;;16.11;71.00;99684.08;25434;1340;3026634;-66
2022/10/25 09:56:31;;;;;;;8.90;7.20;;;;;;;16.08;70.10;99689.51;25407;1333;3026130;-71
2022/10/25 09:59:03;;;;;;;10.50;6.80;;;;;;;15.95;70.94;99683.80;25421;1325;3026966;-66
2022/10/25 10:01:32;;;;;;;9.50;7.20;;;;;;;15.76;71.69;99683.85;25448;1334;3026802;-69
2022/10/25 10:04:22;;;;;;;5.00;3.50;;;;;;;15.71;72.54;99678.92;25452;1329;3028545;-69
2022/10/25 10:06:53;;;;;;;8.40;4.50;;;;;;;16.26;71.42;99682.54;25404;1326;3051005;-70
2022/10/25 10:09:22;;;;;;;8.80;6.20;;;;;;;16.49;70.25;99678.58;25421;1333;3027459;-69
2022/10/25 10:11:52;;;;;;;10.40;7.20;;;;;;;16.55;70.01;99672.55;25416;1325;3026562;-67
2022/10/25 10:14:30;;;;;;;10.90;7.60;;;;;;;16.57;69.55;99672.48;25423;1334;3027012;-70
2022/10/25 10:17:02;;;;;;;12.00;7.50;;;;;;;16.39;70.29;99673.55;25436;1330;3051968;-70
2022/10/25 10:19:35;;;;;;;8.80;6.00;;;;;;;16.22;70.88;99674.91;25428;1333;3049731;-67
2022/10/25 10:22:09;;;;;;;9.90;6.90;;;;;;;16.20;70.21;99664.64;25446;1333;3026301;-68
2022/10/25 10:24:40;;;;;;;12.30;7.60;;;;;;;16.13;71.17;99664.67;25397;1327;3050886;-70
2022/10/25 10:27:23;;;;;;;8.00;5.60;;;;;;;16.13;71.11;99658.34;25391;1326;3057677;-67
2022/10/25 10:29:57;;;;;;;8.20;4.90;;;;;;;15.94;69.99;99646.60;25410;1331;3052998;-67
2022/10/25 10:32:37;;;;;;;8.90;5.00;;;;;;;15.84;70.76;99649.39;25362;1335;3053290;-74
2022/10/25 10:35:23;;;;;;;9.90;5.80;;;;;;;15.81;71.07;99652.23;25403;1333;3050201;-70
2022/10/25 10:37:52;;;;;;;9.20;5.10;;;;;;;15.66;71.79;99652.11;25431;1333;3051541;-71
2022/10/25 10:40:22;;;;;;;5.70;2.90;;;;;;;15.57;72.39;99646.81;25369;1326;3027752;-65
2022/10/25 10:42:52;;;;;;;5.10;3.30;;;;;;;15.94;71.43;99643.39;25423;1329;3050549;-71
2022/10/25 10:45:21;;;;;;;5.20;3.80;;;;;;;16.46;69.50;99646.11;25436;1337;3027606;-72
2022/10/25 10:47:51;;;;;;;8.30;5.00;;;;;;;16.64;68.67;99635.06;25458;1324;3026500;-68
2022/10/25 10:50:23;;;;;;;12.10;6.00;;;;;;;16.51;68.14;99633.83;25412;1324;3026742;-69
2022/10/25 10:52:52;;;;;;;14.90;7.10;;;;;;;16.48;68.19;99628.76;25433;1331;3052266;-67
2022/10/25 10:55:30;;;;;;;17.40;7.90;;;;;;;16.34;68.35;99627.28;25457;1324;3025854;-71
2022/10/25 10:58:22;;;;;;;46.30;17.20;;;;;;;16.19;68.84;99631.99;25436;1332;3051035;-67
2022/10/25 11:01:08;;;;;;;38.30;13.10;;;;;;;16.01;68.42;99633.29;25387;1332;3052676;-68
2022/10/25 11:03:38;;;;;;;24.60;9.90;;;;;;;16.11;67.99;99625.41;25406;1334;3048509;-68
2022/10/25 11:06:28;;;;;;;19.10;8.70;;;;;;;16.06;67.97;99624.74;25444;1331;3026228;-69
2022/10/25 11:09:11;;;;;;;24.30;9.20;;;;;;;16.06;67.79;99624.43;25443;1325;3053130;-65
2022/10/25 11:11:40;;;;;;;26.70;10.10;;;;;;;16.11;67.62;99628.46;25440;1332;3048752;-70
2022/10/25 11:14:13;;;;;;;25.20;9.40;;;;;;;16.13;67.83;99627.21;25418;1333;3025850;-67
2022/10/25 11:16:54;;;;;;;16.30;7.40;;;;;;;16.21;67.84;99620.55;25450;1333;3051588;-69
2022/10/25 11:19:43;;;;;;;14.40;6.60;;;;;;;16.32;67.17;99625.86;25402;1333;3049459;-68
2022/10/25 11:22:24;;;;;;;7.90;3.90;;;;;;;16.25;67.61;99628.01;25416;1333;3070357;-68
2022/10/25 11:25:18;;;;;;;5.50;3.40;;;;;;;16.30;67.62;99618.63;25431;1330;3049622;-69
2022/10/25 11:28:32;;;;;;;6.90;3.90;;;;;;;16.25;68.11;99615.45;25420;1328;3056465;-67
2022/10/25 11:31:06;;;;;;;4.70;3.30;;;;;;;16.27;68.00;99616.36;25404;1333;3052596;-67
2022/10/25 11:33:56;;;;;;;4.10;3.10;;;;;;;16.15;68.37;99621.58;25424;1334;3053066;-70
2022/10/25 11:36:41;;;;;;;5.00;3.50;;;;;;;16.22;68.15;99618.52;25401;1333;3052203;-68
2022/10/25 11:39:36;;;;;;;9.50;4.50;;;;;;;16.11;68.38;99624.41;25379;1327;3053549;-70
2022/10/25 11:42:26;;;;;;;7.30;4.00;;;;;;;16.25;67.82;99614.59;25392;1333;3048740;-69
2022/10/25 11:45:11;;;;;;;9.50;5.10;;;;;;;16.35;67.39;99618.34;25382;1333;3069846;-75
2022/10/25 11:47:49;;;;;;;13.40;5.40;;;;;;;16.25;67.95;99609.31;25415;1333;3049671;-73